Time,TemperatureF,DewpointF,PressureIn,WindDirection,WindDirectionDegrees,WindSpeedMPH,WindSpeedGustMPH,Humidity,HourlyPrecipIn,Conditions,Clouds,dailyrainin,SoftwareType,DateUTC
2013-10-19 00:14:00,45.0,44.0,29.18,North,0,0.0,0.0,97,0.00,,,0.00,,2013-10-19 04:14:00,
2013-10-19 00:24:00,45.0,44.0,29.18,North,0,0.0,0.0,97,0.00,,,0.00,,2013-10-19 04:24:00,
2013-10-19 00:44:00,45.0,44.0,29.18,North,0,0.0,0.0,97,0.00,,,0.00,,2013-10-19 04:44:00,
2013-10-19 00:54:00,45.0,44.0,29.18,North,0,0.0,0.0,97,0.00,,,0.00,,2013-10-19 04:54:00,
2013-10-19 01:04:00,45.0,44.0,29.18,North,0,0.0,0.0,97,0.00,,,0.00,,2013-10-19 05:04:00,
2013-10-19 01:13:00,45.0,44.0,29.18,North,0,0.0,0.0,97,0.00,,,0.00,,2013-10-19 05:13:00,
2013-10-19 01:23:00,46.0,45.0,29.15,North,0,0.0,0.0,97,0.00,,,0.00,,2013-10-19 05:23:00,
2013-10-19 01:34:00,46.0,45.0,29.15,North,0,0.0,0.0,97,0.00,,,0.00,,2013-10-19 05:34:00,
2013-10-19 01:42:00,46.0,45.0,29.15,North,0,0.0,0.0,97,0.00,,,0.00,,2013-10-19 05:42:00,
2013-10-19 01:52:00,46.0,45.0,29.15,North,0,0.0,0.0,97,0.00,,,0.00,,2013-10-19 05:52:00,
2013-10-19 02:12:00,47.0,46.0,29.15,North,0,0.0,0.0,97,0.00,,,0.00,,2013-10-19 06:12:00,
2013-10-19 02:22:00,47.0,46.0,29.15,North,0,0.0,0.0,97,0.00,,,0.00,,2013-10-19 06:22:00,
2013-10-19 02:42:00,47.0,46.0,29.15,North,0,0.0,0.0,97,0.00,,,0.00,,2013-10-19 06:42:00,
2013-10-19 02:52:00,47.0,46.0,29.15,North,0,0.0,0.0,97,0.00,,,0.00,,2013-10-19 06:52:00,
2013-10-19 03:11:00,46.0,45.0,29.15,North,0,0.0,0.0,97,0.00,,,0.00,,2013-10-19 07:11:00,
2013-10-19 03:22:00,46.0,45.0,29.15,North,0,0.0,0.0,97,0.00,,,0.00,,2013-10-19 07:22:00,
2013-10-19 03:32:00,46.0,45.0,29.15,North,0,0.0,0.0,97,0.00,,,0.00,,2013-10-19 07:32:00,
2013-10-19 03:42:00,46.0,45.0,29.15,North,0,0.0,0.0,97,0.00,,,0.00,,2013-10-19 07:42:00,
2013-10-19 03:52:00,47.0,46.0,29.15,North,0,0.0,0.0,97,0.00,,,0.00,,2013-10-19 07:52:00,
2013-10-19 04:11:00,47.0,46.0,29.15,North,0,0.0,0.0,97,0.00,,,0.00,,2013-10-19 08:11:00,
2013-10-19 04:22:00,47.0,46.0,29.12,North,0,0.0,0.0,97,0.00,,,0.00,,2013-10-19 08:22:00,
2013-10-19 04:42:00,46.0,45.0,29.12,North,0,0.0,0.0,97,0.00,,,0.00,,2013-10-19 08:42:00,
2013-10-19 04:52:00,46.0,45.0,29.12,North,0,0.0,0.0,97,0.00,,,0.00,,2013-10-19 08:52:00,
2013-10-19 05:12:00,46.0,45.0,29.12,North,0,0.0,0.0,97,0.00,,,0.00,,2013-10-19 09:12:00,
2013-10-19 05:22:00,46.0,45.0,29.12,North,0,0.0,0.0,97,0.00,,,0.00,,2013-10-19 09:22:00,
2013-10-19 05:33:00,46.0,45.0,29.12,North,0,0.0,0.0,97,0.00,,,0.00,,2013-10-19 09:33:00,
2013-10-19 05:43:00,46.0,45.0,29.12,North,0,0.0,0.0,97,0.00,,,0.00,,2013-10-19 09:43:00,
2013-10-19 05:54:00,47.0,46.0,29.12,North,0,0.0,0.0,97,0.00,,,0.00,,2013-10-19 09:54:00,
2013-10-19 06:13:00,47.0,46.0,29.12,North,0,0.0,0.0,97,0.00,,,0.00,,2013-10-19 10:13:00,
2013-10-19 06:23:00,47.0,46.0,29.12,North,0,0.0,0.0,97,0.00,,,0.00,,2013-10-19 10:23:00,
2013-10-19 06:42:00,47.0,46.0,29.12,North,0,0.0,0.0,97,0.00,,,0.00,,2013-10-19 10:42:00,
2013-10-19 06:53:00,48.0,47.0,29.12,North,0,0.0,0.0,97,0.00,,,0.00,,2013-10-19 10:53:00,
2013-10-19 07:12:00,48.0,47.0,29.09,North,0,0.0,0.0,97,0.00,,,0.00,,2013-10-19 11:12:00,
2013-10-19 07:22:00,48.0,47.0,29.12,North,0,0.0,0.0,97,0.00,,,0.00,,2013-10-19 11:22:00,
2013-10-19 07:42:00,48.0,47.0,29.12,North,0,0.0,0.0,97,0.00,,,0.00,,2013-10-19 11:42:00,
2013-10-19 07:52:00,48.0,47.0,29.09,North,0,0.0,0.0,97,0.00,,,0.00,,2013-10-19 11:52:00,
2013-10-19 08:12:00,47.0,46.0,29.09,North,0,0.0,0.0,97,0.00,,,0.00,,2013-10-19 12:12:00,
2013-10-19 08:22:00,48.0,47.0,29.12,North,0,0.0,0.0,97,0.00,,,0.00,,2013-10-19 12:22:00,
2013-10-19 08:43:00,47.0,46.0,29.12,North,0,0.0,0.0,97,0.00,,,0.00,,2013-10-19 12:43:00,
2013-10-19 08:52:00,48.0,47.0,29.12,North,0,0.0,0.0,97,0.00,,,0.00,,2013-10-19 12:52:00,
2013-10-19 09:12:00,49.0,48.0,29.12,North,0,0.0,0.0,97,0.00,,,0.00,,2013-10-19 13:12:00,
2013-10-19 09:22:00,49.0,48.0,29.12,North,0,0.0,0.0,97,0.00,,,0.00,,2013-10-19 13:22:00,
2013-10-19 09:42:00,50.0,49.0,29.12,North,0,0.0,0.0,97,0.00,,,0.00,,2013-10-19 13:42:00,
2013-10-19 09:52:00,50.0,49.0,29.12,North,0,0.0,0.0,97,0.00,,,0.00,,2013-10-19 13:52:00,
2013-10-19 10:11:00,50.0,49.0,29.12,North,0,0.0,0.0,97,0.00,,,0.00,,2013-10-19 14:11:00,
2013-10-19 10:22:00,52.0,51.0,29.15,North,0,0.0,0.0,97,0.00,,,0.00,,2013-10-19 14:22:00,
2013-10-19 10:32:00,52.0,51.0,29.15,North,0,0.0,0.0,97,0.00,,,0.00,,2013-10-19 14:32:00,
2013-10-19 10:42:00,52.0,51.0,29.15,North,0,0.0,0.0,97,0.00,,,0.00,,2013-10-19 14:42:00,
2013-10-19 11:13:00,57.0,50.0,29.12,ENE,62,4.0,7.0,77,0.00,,,0.00,,2013-10-19 15:13:00,
2013-10-19 11:22:00,55.0,50.0,29.12,North,0,0.0,7.0,84,0.00,,,0.00,,2013-10-19 15:22:00,
2013-10-19 11:44:00,57.0,50.0,29.12,ENE,62,4.0,7.0,77,0.00,,,0.00,,2013-10-19 15:44:00,
2013-10-19 11:55:00,57.0,50.0,29.12,ENE,62,4.0,7.0,77,0.00,,,0.00,,2013-10-19 15:55:00,
2013-10-19 12:04:00,57.0,50.0,29.12,ENE,62,4.0,7.0,77,0.00,,,0.00,,2013-10-19 16:04:00,
2013-10-19 12:43:00,58.0,48.0,29.15,ENE,66,4.0,7.0,70,0.00,,,0.00,,2013-10-19 16:43:00,
2013-10-19 12:53:00,58.0,48.0,29.15,North,0,0.0,6.0,69,0.00,,,0.00,,2013-10-19 16:53:00,
2013-10-19 13:03:00,58.0,48.0,29.15,North,0,0.0,6.0,69,0.00,,,0.00,,2013-10-19 17:03:00,
2013-10-19 13:13:00,58.0,48.0,29.15,North,0,0.0,6.0,69,0.00,,,0.00,,2013-10-19 17:13:00,
2013-10-19 13:22:00,59.0,48.0,29.12,North,0,0.0,5.0,67,0.00,,,0.00,,2013-10-19 17:22:00,
2013-10-19 13:43:00,62.0,49.0,29.12,NE,46,3.0,5.0,62,0.00,,,0.00,,2013-10-19 17:43:00,
2013-10-19 13:52:00,62.0,49.0,29.12,NE,46,3.0,5.0,62,0.00,,,0.00,,2013-10-19 17:52:00,
2013-10-19 14:52:00,66.0,46.0,29.12,ENE,77,4.0,7.0,48,0.00,,,0.00,,2013-10-19 18:52:00,
2013-10-19 15:02:00,66.0,46.0,29.12,ENE,77,4.0,7.0,48,0.00,,,0.00,,2013-10-19 19:02:00,
2013-10-19 15:12:00,66.0,46.0,29.12,ENE,77,4.0,7.0,48,0.00,,,0.00,,2013-10-19 19:12:00,
2013-10-19 15:52:00,68.0,44.0,29.09,ENE,70,6.0,8.0,42,0.00,,,0.00,,2013-10-19 19:52:00,
2013-10-19 16:12:00,69.0,44.0,29.09,ENE,63,3.0,7.0,41,0.00,,,0.00,,2013-10-19 20:12:00,
2013-10-19 16:42:00,70.0,45.0,29.09,ENE,76,5.0,8.0,41,0.00,,,0.00,,2013-10-19 20:42:00,
2013-10-19 16:52:00,68.0,44.0,29.09,East,81,7.0,9.0,42,0.00,,,0.00,,2013-10-19 20:52:00,
2013-10-19 17:11:00,66.0,45.0,29.09,North,0,0.0,4.0,47,0.00,,,0.00,,2013-10-19 21:11:00,
2013-10-19 17:22:00,64.0,44.0,29.09,East,80,3.0,4.0,48,0.00,,,0.00,,2013-10-19 21:22:00,
2013-10-19 17:44:00,64.0,45.0,29.09,North,0,0.0,4.0,50,0.00,,,0.00,,2013-10-19 21:44:00,
2013-10-19 17:54:00,63.0,45.0,29.09,North,0,0.0,5.0,52,0.00,,,0.00,,2013-10-19 21:54:00,
2013-10-19 18:14:00,62.0,46.0,29.09,ESE,115,3.0,5.0,56,0.00,,,0.00,,2013-10-19 22:14:00,
2013-10-19 18:24:00,62.0,47.0,29.12,ENE,72,3.0,6.0,58,0.00,,,0.00,,2013-10-19 22:24:00,
2013-10-19 18:43:00,61.0,46.0,29.12,North,0,0.0,5.0,57,0.00,,,0.00,,2013-10-19 22:43:00,
2013-10-19 18:53:00,61.0,47.0,29.12,SE,141,4.0,5.0,60,0.00,,,0.00,,2013-10-19 22:53:00,
2013-10-19 19:12:00,59.0,46.0,29.12,North,0,0.0,5.0,62,0.00,,,0.00,,2013-10-19 23:12:00,
2013-10-19 19:22:00,57.0,45.0,29.12,North,0,0.0,6.0,65,0.00,,,0.00,,2013-10-19 23:22:00,
2013-10-19 19:42:00,55.0,45.0,29.15,North,0,0.0,4.0,70,0.00,,,0.00,,2013-10-19 23:42:00,
2013-10-19 19:53:00,54.0,45.0,29.15,North,0,0.0,0.0,72,0.00,,,0.00,,2013-10-19 23:53:00,
2013-10-19 20:11:00,53.0,45.0,29.15,North,0,0.0,4.0,74,0.00,,,0.00,,2013-10-20 00:11:00,
2013-10-19 20:23:00,53.0,45.0,29.15,North,0,0.0,3.0,74,0.00,,,0.00,,2013-10-20 00:23:00,
2013-10-19 20:42:00,52.0,46.0,29.15,North,0,0.0,4.0,79,0.00,,,0.00,,2013-10-20 00:42:00,
2013-10-19 20:52:00,51.0,45.0,29.15,North,0,0.0,5.0,81,0.00,,,0.00,,2013-10-20 00:52:00,
2013-10-19 21:11:00,50.0,44.0,29.15,North,0,0.0,4.0,81,0.00,,,0.00,,2013-10-20 01:11:00,
2013-10-19 21:22:00,50.0,44.0,29.15,North,0,0.0,4.0,81,0.00,,,0.00,,2013-10-20 01:22:00,
2013-10-19 21:42:00,49.0,44.0,29.18,North,0,0.0,0.0,83,0.00,,,0.00,,2013-10-20 01:42:00,
2013-10-19 21:53:00,47.0,43.0,29.18,North,0,0.0,0.0,85,0.00,,,0.00,,2013-10-20 01:53:00,
2013-10-19 22:12:00,47.0,43.0,29.18,North,0,0.0,0.0,86,0.00,,,0.00,,2013-10-20 02:12:00,
2013-10-19 22:22:00,47.0,43.0,29.18,North,0,0.0,0.0,86,0.00,,,0.00,,2013-10-20 02:22:00,
2013-10-19 22:42:00,46.0,43.0,29.18,North,0,0.0,0.0,89,0.00,,,0.00,,2013-10-20 02:42:00,
2013-10-19 22:52:00,46.0,43.0,29.18,North,0,0.0,0.0,89,0.00,,,0.00,,2013-10-20 02:52:00,
2013-10-19 23:12:00,44.0,42.0,29.21,North,0,0.0,0.0,92,0.00,,,0.00,,2013-10-20 03:12:00,
2013-10-19 23:22:00,44.0,42.0,29.21,North,0,0.0,0.0,94,0.00,,,0.00,,2013-10-20 03:22:00,
2013-10-19 23:44:00,43.0,41.0,29.21,North,0,0.0,0.0,94,0.00,,,0.00,,2013-10-20 03:44:00,
2013-10-19 23:55:00,43.0,42.0,29.21,North,0,0.0,0.0,95,0.00,,,0.00,,2013-10-20 03:55:00,